sensor_id;sensor_type;location;lat;lon;timestamp;pressure;altitude;pressure_sealevel;temperature;humidity
14041;BME280;7095;51.388;6.196;2023-05-19T00:01:13;55636.94;;;-145.32;100.00
14041;BME280;7095;51.388;6.196;2023-05-19T00:03:49;55529.53;;;-145.32;100.00
14041;BME280;7095;51.388;6.196;2023-05-19T00:06:22;55535.50;;;-145.32;100.00
14041;BME280;7095;51.388;6.196;2023-05-19T00:08:56;55467.84;;;-145.32;100.00
14041;BME280;7095;51.388;6.196;2023-05-19T00:11:26;55408.19;;;-145.32;100.00
14041;BME280;7095;51.388;6.196;2023-05-19T00:13:57;55364.41;;;-145.32;100.00
14041;BME280;7095;51.388;6.196;2023-05-19T00:16:27;55324.63;;;-145.32;100.00
14041;BME280;7095;51.388;6.196;2023-05-19T00:18:57;55229.16;;;-145.32;100.00
14041;BME280;7095;51.388;6.196;2023-05-19T00:21:26;55225.19;;;-145.32;100.00
14041;BME280;7095;51.388;6.196;2023-05-19T00:23:57;55185.41;;;-145.32;100.00
14041;BME280;7095;51.388;6.196;2023-05-19T00:26:26;55147.59;;;-145.32;100.00
14041;BME280;7095;51.388;6.196;2023-05-19T00:29:00;55129.69;;;-145.32;100.00
14041;BME280;7095;51.388;6.196;2023-05-19T00:31:29;55093.91;;;-145.32;100.00
14041;BME280;7095;51.388;6.196;2023-05-19T00:34:00;55081.97;;;-145.32;100.00
14041;BME280;7095;51.388;6.196;2023-05-19T00:36:29;55058.09;;;-145.32;100.00
14041;BME280;7095;51.388;6.196;2023-05-19T00:38:59;55042.19;;;-145.32;100.00
14041;BME280;7095;51.388;6.196;2023-05-19T00:41:27;55024.28;;;-145.32;100.00
14041;BME280;7095;51.388;6.196;2023-05-19T00:43:56;55018.31;;;-145.32;100.00
14041;BME280;7095;51.388;6.196;2023-05-19T00:46:25;55026.28;;;-145.32;100.00
14041;BME280;7095;51.388;6.196;2023-05-19T00:48:54;55014.34;;;-145.32;100.00
14041;BME280;7095;51.388;6.196;2023-05-19T00:51:25;55006.38;;;-145.32;100.00
14041;BME280;7095;51.388;6.196;2023-05-19T00:53:54;55034.22;;;-145.32;100.00
14041;BME280;7095;51.388;6.196;2023-05-19T00:56:24;55034.22;;;-145.32;100.00
14041;BME280;7095;51.388;6.196;2023-05-19T00:58:53;55066.06;;;-145.32;100.00
14041;BME280;7095;51.388;6.196;2023-05-19T01:01:22;55018.31;;;-145.32;100.00
14041;BME280;7095;51.388;6.196;2023-05-19T01:03:53;55078.00;;;-145.32;100.00
14041;BME280;7095;51.388;6.196;2023-05-19T01:06:25;55050.16;;;-145.32;100.00
14041;BME280;7095;51.388;6.196;2023-05-19T01:08:55;55109.81;;;-145.32;100.00
14041;BME280;7095;51.388;6.196;2023-05-19T01:11:25;55149.59;;;-145.32;100.00
14041;BME280;7095;51.388;6.196;2023-05-19T01:13:54;55133.69;;;-145.32;100.00
14041;BME280;7095;51.388;6.196;2023-05-19T01:16:28;55155.56;;;-145.32;100.00
14041;BME280;7095;51.388;6.196;2023-05-19T01:19:00;55157.56;;;-145.32;100.00
14041;BME280;7095;51.388;6.196;2023-05-19T01:25:12;55137.66;;;-145.32;100.00
14041;BME280;7095;51.388;6.196;2023-05-19T01:30:54;55173.47;;;-145.32;100.00
14041;BME280;7095;51.388;6.196;2023-05-19T01:33:25;55125.72;;;-145.32;100.00
14041;BME280;7095;51.388;6.196;2023-05-19T01:35:57;55135.66;;;-145.32;100.00
14041;BME280;7095;51.388;6.196;2023-05-19T01:38:27;55189.38;;;-145.32;100.00
14041;BME280;7095;51.388;6.196;2023-05-19T01:40:57;55161.53;;;-145.32;100.00
14041;BME280;7095;51.388;6.196;2023-05-19T01:43:26;55205.28;;;-145.32;100.00
14041;BME280;7095;51.388;6.196;2023-05-19T01:45:57;55221.19;;;-145.32;100.00
14041;BME280;7095;51.388;6.196;2023-05-19T01:48:26;55231.16;;;-145.32;100.00
14041;BME280;7095;51.388;6.196;2023-05-19T01:50:56;55320.66;;;-145.32;100.00
14041;BME280;7095;51.388;6.196;2023-05-19T01:53:26;55318.66;;;-145.32;100.00
14041;BME280;7095;51.388;6.196;2023-05-19T01:55:55;55360.44;;;-145.32;100.00
14041;BME280;7095;51.388;6.196;2023-05-19T01:58:37;55436.03;;;-145.32;100.00
14041;BME280;7095;51.388;6.196;2023-05-19T02:01:15;55380.34;;;-145.32;100.00
14041;BME280;7095;51.388;6.196;2023-05-19T02:04:01;55374.38;;;-145.32;100.00
14041;BME280;7095;51.388;6.196;2023-05-19T02:06:41;55416.13;;;-145.32;100.00
14041;BME280;7095;51.388;6.196;2023-05-19T02:09:15;55455.91;;;-145.32;100.00
14041;BME280;7095;51.388;6.196;2023-05-19T02:11:51;55491.72;;;-145.32;100.00
14041;BME280;7095;51.388;6.196;2023-05-19T02:14:24;55495.69;;;-145.32;100.00
14041;BME280;7095;51.388;6.196;2023-05-19T02:16:57;55565.31;;;-145.32;100.00
14041;BME280;7095;51.388;6.196;2023-05-19T02:19:32;55597.16;;;-145.32;100.00
14041;BME280;7095;51.388;6.196;2023-05-19T02:22:01;55585.22;;;-145.32;100.00
14041;BME280;7095;51.388;6.196;2023-05-19T02:24:30;55533.50;;;-145.32;100.00
14041;BME280;7095;51.388;6.196;2023-05-19T02:26:58;55583.22;;;-145.32;100.00
14041;BME280;7095;51.388;6.196;2023-05-19T02:29:27;55682.69;;;-145.32;100.00
14041;BME280;7095;51.388;6.196;2023-05-19T02:31:57;55686.69;;;-145.32;100.00
14041;BME280;7095;51.388;6.196;2023-05-19T02:34:26;55736.41;;;-145.32;100.00
14041;BME280;7095;51.388;6.196;2023-05-19T02:36:54;55780.19;;;-145.32;100.00
14041;BME280;7095;51.388;6.196;2023-05-19T02:39:23;55782.16;;;-145.32;100.00
14041;BME280;7095;51.388;6.196;2023-05-19T02:41:52;55792.13;;;-145.32;100.00
14041;BME280;7095;51.388;6.196;2023-05-19T02:44:20;55855.78;;;-145.32;100.00
14041;BME280;7095;51.388;6.196;2023-05-19T02:46:49;55817.97;;;-145.32;100.00
14041;BME280;7095;51.388;6.196;2023-05-19T02:49:19;55806.03;;;-145.32;100.00
14041;BME280;7095;51.388;6.196;2023-05-19T02:51:48;55863.72;;;-145.32;100.00
14041;BME280;7095;51.388;6.196;2023-05-19T02:54:16;55881.63;;;-145.32;100.00
14041;BME280;7095;51.388;6.196;2023-05-19T02:56:45;55873.69;;;-145.32;100.00
14041;BME280;7095;51.388;6.196;2023-05-19T02:59:14;55883.63;;;-145.32;100.00
14041;BME280;7095;51.388;6.196;2023-05-19T03:01:42;55945.31;;;-145.32;100.00
14041;BME280;7095;51.388;6.196;2023-05-19T03:04:11;55901.53;;;-145.32;100.00
14041;BME280;7095;51.388;6.196;2023-05-19T03:06:41;55959.22;;;-145.32;100.00
14041;BME280;7095;51.388;6.196;2023-05-19T03:09:11;55941.31;;;-145.32;100.00
14041;BME280;7095;51.388;6.196;2023-05-19T03:11:40;55925.41;;;-145.32;100.00
14041;BME280;7095;51.388;6.196;2023-05-19T03:14:09;55949.28;;;-145.32;100.00
14041;BME280;7095;51.388;6.196;2023-05-19T03:16:39;55995.03;;;-145.32;100.00
14041;BME280;7095;51.388;6.196;2023-05-19T03:19:09;55959.22;;;-145.32;100.00
14041;BME280;7095;51.388;6.196;2023-05-19T03:21:42;55969.19;;;-145.32;100.00
14041;BME280;7095;51.388;6.196;2023-05-19T03:24:11;55973.16;;;-145.32;100.00
14041;BME280;7095;51.388;6.196;2023-05-19T03:26:40;56048.75;;;-145.32;100.00
14041;BME280;7095;51.388;6.196;2023-05-19T03:29:08;56024.88;;;-145.32;100.00
14041;BME280;7095;51.388;6.196;2023-05-19T03:31:37;56026.88;;;-145.32;100.00
14041;BME280;7095;51.388;6.196;2023-05-19T03:34:06;55987.09;;;-145.32;100.00
14041;BME280;7095;51.388;6.196;2023-05-19T03:36:34;56072.63;;;-145.32;100.00
14041;BME280;7095;51.388;6.196;2023-05-19T03:39:10;56080.59;;;-145.32;100.00
14041;BME280;7095;51.388;6.196;2023-05-19T03:41:39;56068.66;;;-145.32;100.00
14041;BME280;7095;51.388;6.196;2023-05-19T03:44:08;56072.63;;;-145.32;100.00
14041;BME280;7095;51.388;6.196;2023-05-19T03:46:36;56078.59;;;-145.32;100.00
14041;BME280;7095;51.388;6.196;2023-05-19T03:49:31;56066.66;;;-145.32;100.00
14041;BME280;7095;51.388;6.196;2023-05-19T03:52:03;56122.38;;;-145.32;100.00
14041;BME280;7095;51.388;6.196;2023-05-19T03:54:45;56140.28;;;-145.32;100.00
14041;BME280;7095;51.388;6.196;2023-05-19T03:57:13;56166.16;;;-145.32;100.00
14041;BME280;7095;51.388;6.196;2023-05-19T03:59:42;56211.91;;;-145.32;100.00
14041;BME280;7095;51.388;6.196;2023-05-19T04:02:11;56172.13;;;-145.32;100.00
14041;BME280;7095;51.388;6.196;2023-05-19T04:04:40;56192.00;;;-145.32;100.00
14041;BME280;7095;51.388;6.196;2023-05-19T04:07:09;56174.09;;;-145.32;100.00
14041;BME280;7095;51.388;6.196;2023-05-19T04:09:38;56237.78;;;-145.32;100.00
14041;BME280;7095;51.388;6.196;2023-05-19T04:12:08;56267.63;;;-145.32;100.00
14041;BME280;7095;51.388;6.196;2023-05-19T04:14:37;56259.66;;;-145.32;100.00
14041;BME280;7095;51.388;6.196;2023-05-19T04:17:06;56267.63;;;-145.32;100.00
14041;BME280;7095;51.388;6.196;2023-05-19T04:19:35;56241.75;;;-145.32;100.00
14041;BME280;7095;51.388;6.196;2023-05-19T04:22:05;56299.44;;;-145.32;100.00
14041;BME280;7095;51.388;6.196;2023-05-19T04:24:33;56351.19;;;-145.32;100.00
14041;BME280;7095;51.388;6.196;2023-05-19T04:27:02;56303.44;;;-145.32;100.00
14041;BME280;7095;51.388;6.196;2023-05-19T04:29:33;56291.50;;;-145.32;100.00
14041;BME280;7095;51.388;6.196;2023-05-19T04:32:03;56383.03;;;-145.32;100.00
14041;BME280;7095;51.388;6.196;2023-05-19T04:34:34;56396.94;;;-145.32;100.00
14041;BME280;7095;51.388;6.196;2023-05-19T04:37:07;56426.78;;;-145.32;100.00
14041;BME280;7095;51.388;6.196;2023-05-19T04:39:38;56412.88;;;-145.32;100.00
14041;BME280;7095;51.388;6.196;2023-05-19T04:42:10;56357.16;;;-145.32;100.00
14041;BME280;7095;51.388;6.196;2023-05-19T04:44:40;56428.78;;;-145.32;100.00
14041;BME280;7095;51.388;6.196;2023-05-19T04:47:09;56422.81;;;-145.32;100.00
14041;BME280;7095;51.388;6.196;2023-05-19T04:49:38;56406.91;;;-145.32;100.00
14041;BME280;7095;51.388;6.196;2023-05-19T04:52:08;56243.75;;;-145.32;100.00
14041;BME280;7095;51.388;6.196;2023-05-19T04:54:39;56217.88;;;-145.32;100.00
14041;BME280;7095;51.388;6.196;2023-05-19T04:57:11;56259.66;;;-145.32;100.00
14041;BME280;7095;51.388;6.196;2023-05-19T04:59:41;56223.84;;;-145.32;100.00
14041;BME280;7095;51.388;6.196;2023-05-19T05:02:10;56247.72;;;-145.32;100.00
14041;BME280;7095;51.388;6.196;2023-05-19T05:04:38;56267.63;;;-145.32;100.00
14041;BME280;7095;51.388;6.196;2023-05-19T05:07:09;56126.34;;;-145.32;100.00
14041;BME280;7095;51.388;6.196;2023-05-19T05:09:38;56190.03;;;-145.32;100.00
14041;BME280;7095;51.388;6.196;2023-05-19T05:12:08;56203.94;;;-145.32;100.00
14041;BME280;7095;51.388;6.196;2023-05-19T05:14:40;56078.59;;;-145.32;100.00
14041;BME280;7095;51.388;6.196;2023-05-19T05:17:10;56231.81;;;-145.32;100.00
14041;BME280;7095;51.388;6.196;2023-05-19T05:19:41;56271.59;;;-145.32;100.00
14041;BME280;7095;51.388;6.196;2023-05-19T05:22:11;56124.34;;;-145.32;100.00
14041;BME280;7095;51.388;6.196;2023-05-19T05:24:41;56172.13;;;-145.32;100.00
14041;BME280;7095;51.388;6.196;2023-05-19T05:27:10;56196.00;;;-145.32;100.00
14041;BME280;7095;51.388;6.196;2023-05-19T05:29:40;56084.56;;;-145.32;100.00
14041;BME280;7095;51.388;6.196;2023-05-19T05:32:09;55957.25;;;-145.32;100.00
14041;BME280;7095;51.388;6.196;2023-05-19T05:34:38;55989.06;;;-145.32;100.00
14041;BME280;7095;51.388;6.196;2023-05-19T05:37:07;55929.38;;;-145.32;100.00
14041;BME280;7095;51.388;6.196;2023-05-19T05:39:38;55629.00;;;-145.32;100.00
14041;BME280;7095;51.388;6.196;2023-05-19T05:42:07;55597.16;;;-145.32;100.00
14041;BME280;7095;51.388;6.196;2023-05-19T05:44:38;55658.81;;;-145.32;100.00
14041;BME280;7095;51.388;6.196;2023-05-19T05:47:09;55609.09;;;-145.32;100.00
14041;BME280;7095;51.388;6.196;2023-05-19T05:49:39;55515.59;;;-145.32;100.00
14041;BME280;7095;51.388;6.196;2023-05-19T05:52:10;55461.88;;;-145.32;100.00
14041;BME280;7095;51.388;6.196;2023-05-19T05:54:44;55362.44;;;-145.32;100.00
14041;BME280;7095;51.388;6.196;2023-05-19T05:57:16;55424.09;;;-145.32;100.00
14041;BME280;7095;51.388;6.196;2023-05-19T05:59:45;55432.06;;;-145.32;100.00
14041;BME280;7095;51.388;6.196;2023-05-19T06:02:15;55268.94;;;-145.32;100.00
14041;BME280;7095;51.388;6.196;2023-05-19T06:04:44;55229.16;;;-145.32;100.00
14041;BME280;7095;51.388;6.196;2023-05-19T06:07:13;55253.03;;;-145.32;100.00
14041;BME280;7095;51.388;6.196;2023-05-19T06:09:43;55137.66;;;-145.32;100.00
14041;BME280;7095;51.388;6.196;2023-05-19T06:12:14;55111.81;;;-145.32;100.00
14041;BME280;7095;51.388;6.196;2023-05-19T06:14:46;55056.13;;;-145.32;100.00
14041;BME280;7095;51.388;6.196;2023-05-19T06:17:52;54950.69;;;-145.32;100.00
14041;BME280;7095;51.388;6.196;2023-05-19T06:20:21;54819.44;;;-145.32;100.00
14041;BME280;7095;51.388;6.196;2023-05-19T06:22:50;54789.59;;;-145.32;100.00
14041;BME280;7095;51.388;6.196;2023-05-19T06:25:20;54751.81;;;-145.32;100.00
14041;BME280;7095;51.388;6.196;2023-05-19T06:27:50;54676.25;;;-145.32;100.00
14041;BME280;7095;51.388;6.196;2023-05-19T06:30:20;54638.44;;;-145.32;100.00
14041;BME280;7095;51.388;6.196;2023-05-19T06:33:19;54457.47;;;-145.32;100.00
14041;BME280;7095;51.388;6.196;2023-05-19T06:35:48;54437.59;;;-145.32;100.00
14041;BME280;7095;51.388;6.196;2023-05-19T06:38:17;54431.63;;;-145.32;100.00
14041;BME280;7095;51.388;6.196;2023-05-19T06:40:46;54409.75;;;-145.32;100.00
14041;BME280;7095;51.388;6.196;2023-05-19T06:43:15;54393.84;;;-145.32;100.00
14041;BME280;7095;51.388;6.196;2023-05-19T06:45:55;54342.16;;;-145.32;100.00
14041;BME280;7095;51.388;6.196;2023-05-19T06:48:26;54270.56;;;-145.32;100.00
14041;BME280;7095;51.388;6.196;2023-05-19T06:50:55;54270.56;;;-145.32;100.00
14041;BME280;7095;51.388;6.196;2023-05-19T06:53:24;54252.66;;;-145.32;100.00
14041;BME280;7095;51.388;6.196;2023-05-19T06:55:53;54195.00;;;-145.32;100.00
14041;BME280;7095;51.388;6.196;2023-05-19T06:58:29;54200.97;;;-145.32;100.00
14041;BME280;7095;51.388;6.196;2023-05-19T07:01:00;54181.06;;;-145.32;100.00
14041;BME280;7095;51.388;6.196;2023-05-19T07:03:35;54175.13;;;-145.32;100.00
14041;BME280;7095;51.388;6.196;2023-05-19T07:06:05;54105.50;;;-145.32;100.00
14041;BME280;7095;51.388;6.196;2023-05-19T07:08:35;54137.34;;;-145.32;100.00
14041;BME280;7095;51.388;6.196;2023-05-19T07:11:06;54127.38;;;-145.32;100.00
14041;BME280;7095;51.388;6.196;2023-05-19T07:13:34;54093.59;;;-145.32;100.00
14041;BME280;7095;51.388;6.196;2023-05-19T07:16:04;54087.63;;;-145.32;100.00
14041;BME280;7095;51.388;6.196;2023-05-19T07:18:33;53990.19;;;-145.32;100.00
14041;BME280;7095;51.388;6.196;2023-05-19T07:21:03;53972.28;;;-145.32;100.00
14041;BME280;7095;51.388;6.196;2023-05-19T07:23:33;53946.44;;;-145.32;100.00
14041;BME280;7095;51.388;6.196;2023-05-19T07:26:02;53874.88;;;-145.32;100.00
14041;BME280;7095;51.388;6.196;2023-05-19T07:28:31;53900.72;;;-145.32;100.00
14041;BME280;7095;51.388;6.196;2023-05-19T07:31:00;53912.66;;;-145.32;100.00
14041;BME280;7095;51.388;6.196;2023-05-19T07:33:29;53866.91;;;-145.32;100.00
14041;BME280;7095;51.388;6.196;2023-05-19T07:35:57;53809.25;;;-145.32;100.00
14041;BME280;7095;51.388;6.196;2023-05-19T07:38:27;53803.28;;;-145.32;100.00
14041;BME280;7095;51.388;6.196;2023-05-19T07:40:57;53803.28;;;-145.32;100.00
14041;BME280;7095;51.388;6.196;2023-05-19T07:43:26;53789.38;;;-145.32;100.00
14041;BME280;7095;51.388;6.196;2023-05-19T07:45:54;53801.31;;;-145.32;100.00
14041;BME280;7095;51.388;6.196;2023-05-19T07:48:23;53789.38;;;-145.32;100.00
14041;BME280;7095;51.388;6.196;2023-05-19T07:50:52;53773.47;;;-145.32;100.00
14041;BME280;7095;51.388;6.196;2023-05-19T07:53:20;53749.59;;;-145.32;100.00
14041;BME280;7095;51.388;6.196;2023-05-19T07:55:51;53713.81;;;-145.32;100.00
14041;BME280;7095;51.388;6.196;2023-05-19T07:58:20;53723.75;;;-145.32;100.00
14041;BME280;7095;51.388;6.196;2023-05-19T08:00:49;53697.91;;;-145.32;100.00
14041;BME280;7095;51.388;6.196;2023-05-19T08:03:17;53725.75;;;-145.32;100.00
14041;BME280;7095;51.388;6.196;2023-05-19T08:05:47;53682.00;;;-145.32;100.00
14041;BME280;7095;51.388;6.196;2023-05-19T08:08:16;53654.19;;;-145.32;100.00
14041;BME280;7095;51.388;6.196;2023-05-19T08:10:45;53630.31;;;-145.32;100.00
14041;BME280;7095;51.388;6.196;2023-05-19T08:13:15;53656.16;;;-145.32;100.00
14041;BME280;7095;51.388;6.196;2023-05-19T08:15:44;53602.47;;;-145.32;100.00
14041;BME280;7095;51.388;6.196;2023-05-19T08:18:13;53630.31;;;-145.32;100.00
14041;BME280;7095;51.388;6.196;2023-05-19T08:20:41;53606.47;;;-145.32;100.00
14041;BME280;7095;51.388;6.196;2023-05-19T08:23:10;53642.25;;;-145.32;100.00
14041;BME280;7095;51.388;6.196;2023-05-19T08:25:38;53600.50;;;-145.32;97.76
14041;BME280;7095;51.388;6.196;2023-05-19T08:28:07;53602.47;;;-145.32;95.42
14041;BME280;7095;51.388;6.196;2023-05-19T08:30:37;53562.72;;;-145.32;95.21
14041;BME280;7095;51.388;6.196;2023-05-19T08:33:06;53594.53;;;-145.32;92.92
14041;BME280;7095;51.388;6.196;2023-05-19T08:35:35;53550.78;;;-145.32;91.95
14041;BME280;7095;51.388;6.196;2023-05-19T08:38:04;53546.81;;;-145.32;91.26
14041;BME280;7095;51.388;6.196;2023-05-19T08:40:33;53590.56;;;-145.32;90.43
14041;BME280;7095;51.388;6.196;2023-05-19T08:43:04;53564.72;;;-145.32;91.08
14041;BME280;7095;51.388;6.196;2023-05-19T08:45:33;53574.66;;;-145.32;89.38
14041;BME280;7095;51.388;6.196;2023-05-19T08:48:03;53570.69;;;-145.32;84.43
14041;BME280;7095;51.388;6.196;2023-05-19T08:50:38;53511.03;;;-145.32;83.01
14041;BME280;7095;51.388;6.196;2023-05-19T08:53:10;53540.84;;;-145.32;85.24
14041;BME280;7095;51.388;6.196;2023-05-19T08:56:00;53497.13;;;-145.32;81.88
14041;BME280;7095;51.388;6.196;2023-05-19T08:58:37;53542.84;;;-145.32;81.56
14041;BME280;7095;51.388;6.196;2023-05-19T09:01:07;53503.06;;;-145.32;82.83
14041;BME280;7095;51.388;6.196;2023-05-19T09:03:38;53503.06;;;-145.32;79.39
14041;BME280;7095;51.388;6.196;2023-05-19T09:06:09;53499.09;;;-145.32;80.16
14041;BME280;7095;51.388;6.196;2023-05-19T09:08:40;53479.22;;;-145.32;78.73
14041;BME280;7095;51.388;6.196;2023-05-19T09:11:09;53481.22;;;-145.32;77.19
14041;BME280;7095;51.388;6.196;2023-05-19T09:13:38;53499.09;;;-145.32;74.66
14041;BME280;7095;51.388;6.196;2023-05-19T09:16:07;53443.44;;;-145.32;71.67
14041;BME280;7095;51.388;6.196;2023-05-19T09:18:38;53463.31;;;-145.32;69.99
14041;BME280;7095;51.388;6.196;2023-05-19T09:21:08;53471.28;;;-145.32;69.17
14041;BME280;7095;51.388;6.196;2023-05-19T09:23:37;53435.47;;;-145.32;67.96
14041;BME280;7095;51.388;6.196;2023-05-19T09:26:06;53435.47;;;-145.32;65.83
14041;BME280;7095;51.388;6.196;2023-05-19T09:28:35;53455.38;;;-145.32;65.21
14041;BME280;7095;51.388;6.196;2023-05-19T09:31:05;53431.50;;;-145.32;66.64
14041;BME280;7095;51.388;6.196;2023-05-19T09:33:35;53419.59;;;-145.32;66.24
14041;BME280;7095;51.388;6.196;2023-05-19T09:36:06;53407.66;;;-145.32;64.38
14041;BME280;7095;51.388;6.196;2023-05-19T09:38:37;53421.56;;;-145.32;62.90
14041;BME280;7095;51.388;6.196;2023-05-19T09:41:06;53419.59;;;-145.32;63.49
14041;BME280;7095;51.388;6.196;2023-05-19T09:43:35;53411.63;;;-145.32;62.03
14041;BME280;7095;51.388;6.196;2023-05-19T09:46:05;53421.56;;;-145.32;62.96
14041;BME280;7095;51.388;6.196;2023-05-19T09:48:34;53419.59;;;-145.32;59.23
14041;BME280;7095;51.388;6.196;2023-05-19T09:51:04;53407.66;;;-145.32;58.17
14041;BME280;7095;51.388;6.196;2023-05-19T09:53:35;53395.72;;;-145.32;58.81
14041;BME280;7095;51.388;6.196;2023-05-19T09:56:07;53377.84;;;-145.32;57.38
14041;BME280;7095;51.388;6.196;2023-05-19T09:58:36;53381.81;;;-145.32;55.98
14041;BME280;7095;51.388;6.196;2023-05-19T10:01:05;53361.94;;;-145.32;56.71
14041;BME280;7095;51.388;6.196;2023-05-19T10:03:34;53379.81;;;-145.32;57.13
14041;BME280;7095;51.388;6.196;2023-05-19T10:06:04;53403.69;;;-145.32;54.94
14041;BME280;7095;51.388;6.196;2023-05-19T10:08:36;53399.69;;;-145.32;54.28
14041;BME280;7095;51.388;6.196;2023-05-19T10:11:09;53381.81;;;-145.32;52.65
14041;BME280;7095;51.388;6.196;2023-05-19T10:13:38;53373.84;;;-145.32;51.86
14041;BME280;7095;51.388;6.196;2023-05-19T10:16:08;53369.88;;;-145.32;50.52
14041;BME280;7095;51.388;6.196;2023-05-19T10:18:37;53348.00;;;-145.32;50.03
14041;BME280;7095;51.388;6.196;2023-05-19T10:21:07;53367.91;;;-145.32;49.39
14041;BME280;7095;51.388;6.196;2023-05-19T10:23:37;53373.84;;;-145.32;49.80
14041;BME280;7095;51.388;6.196;2023-05-19T10:26:06;53336.09;;;-145.32;49.89
14041;BME280;7095;51.388;6.196;2023-05-19T10:28:38;53336.09;;;-145.32;48.57
14041;BME280;7095;51.388;6.196;2023-05-19T10:31:10;53355.97;;;-145.32;47.77
14041;BME280;7095;51.388;6.196;2023-05-19T10:34:07;53355.97;;;-145.32;45.85
14041;BME280;7095;51.388;6.196;2023-05-19T10:36:45;53352.00;;;-145.32;46.79
14041;BME280;7095;51.388;6.196;2023-05-19T10:39:21;53316.22;;;-145.32;44.89
14041;BME280;7095;51.388;6.196;2023-05-19T10:42:02;53296.31;;;-145.32;45.88
14041;BME280;7095;51.388;6.196;2023-05-19T10:44:42;53314.22;;;-145.32;46.34
14041;BME280;7095;51.388;6.196;2023-05-19T10:47:14;53310.25;;;-145.32;47.73
14041;BME280;7095;51.388;6.196;2023-05-19T10:49:51;53326.16;;;-145.32;46.96
14041;BME280;7095;51.388;6.196;2023-05-19T10:52:20;53320.19;;;-145.32;47.84
14041;BME280;7095;51.388;6.196;2023-05-19T10:54:53;53302.28;;;-145.32;47.71
14041;BME280;7095;51.388;6.196;2023-05-19T10:57:25;53328.13;;;-145.32;47.16
14041;BME280;7095;51.388;6.196;2023-05-19T10:59:54;53296.31;;;-145.32;46.50
14041;BME280;7095;51.388;6.196;2023-05-19T11:02:37;53324.16;;;-145.32;44.96
14041;BME280;7095;51.388;6.196;2023-05-19T11:05:07;53304.28;;;-145.32;45.96
14041;BME280;7095;51.388;6.196;2023-05-19T11:07:40;53342.06;;;-145.32;45.33
14041;BME280;7095;51.388;6.196;2023-05-19T11:10:11;53312.22;;;-145.32;45.42
14041;BME280;7095;51.388;6.196;2023-05-19T11:12:41;53316.22;;;-145.32;44.36
14041;BME280;7095;51.388;6.196;2023-05-19T11:15:14;53290.38;;;-145.32;45.21
14041;BME280;7095;51.388;6.196;2023-05-19T11:17:45;53302.28;;;-145.32;44.56
14041;BME280;7095;51.388;6.196;2023-05-19T11:20:22;53266.50;;;-145.32;43.62
14041;BME280;7095;51.388;6.196;2023-05-19T11:23:04;53294.34;;;-145.32;41.98
14041;BME280;7095;51.388;6.196;2023-05-19T11:25:42;53282.41;;;-145.32;43.33
14041;BME280;7095;51.388;6.196;2023-05-19T11:28:16;53248.63;;;-145.32;44.89
14041;BME280;7095;51.388;6.196;2023-05-19T11:30:47;53236.69;;;-145.32;44.94
14041;BME280;7095;51.388;6.196;2023-05-19T11:33:19;53274.47;;;-145.32;45.12
14041;BME280;7095;51.388;6.196;2023-05-19T11:35:54;53240.66;;;-145.32;45.01
14041;BME280;7095;51.388;6.196;2023-05-19T11:38:24;53216.81;;;-145.32;44.15
14041;BME280;7095;51.388;6.196;2023-05-19T11:40:56;53206.88;;;-145.32;42.32
14041;BME280;7095;51.388;6.196;2023-05-19T11:43:26;53238.69;;;-145.32;41.61
14041;BME280;7095;51.388;6.196;2023-05-19T11:45:54;53228.75;;;-145.32;42.39
14041;BME280;7095;51.388;6.196;2023-05-19T11:48:23;53216.81;;;-145.32;41.58
14041;BME280;7095;51.388;6.196;2023-05-19T11:50:53;53212.84;;;-145.32;40.38
14041;BME280;7095;51.388;6.196;2023-05-19T11:53:23;53190.97;;;-145.32;39.14
14041;BME280;7095;51.388;6.196;2023-05-19T11:55:51;53212.84;;;-145.32;39.10
14041;BME280;7095;51.388;6.196;2023-05-19T11:58:25;53204.88;;;-145.32;37.76
14041;BME280;7095;51.388;6.196;2023-05-19T12:00:55;53167.13;;;-145.32;38.72
14041;BME280;7095;51.388;6.196;2023-05-19T12:03:25;53177.06;;;-145.32;38.55
14041;BME280;7095;51.388;6.196;2023-05-19T12:05:55;53181.03;;;-145.32;37.83
14041;BME280;7095;51.388;6.196;2023-05-19T12:08:24;53177.06;;;-145.32;36.39
14041;BME280;7095;51.388;6.196;2023-05-19T12:10:53;53157.19;;;-145.32;35.79
14041;BME280;7095;51.388;6.196;2023-05-19T12:13:22;53145.25;;;-145.32;35.06
14041;BME280;7095;51.388;6.196;2023-05-19T12:15:52;53149.22;;;-145.32;34.71
14041;BME280;7095;51.388;6.196;2023-05-19T12:18:21;53157.19;;;-145.32;34.20
14041;BME280;7095;51.388;6.196;2023-05-19T12:20:51;53155.19;;;-145.32;34.23
14041;BME280;7095;51.388;6.196;2023-05-19T12:23:19;53143.25;;;-145.32;34.64
14041;BME280;7095;51.388;6.196;2023-05-19T12:25:48;53169.09;;;-145.32;34.86
14041;BME280;7095;51.388;6.196;2023-05-19T12:28:18;53137.28;;;-145.32;34.60
14041;BME280;7095;51.388;6.196;2023-05-19T12:30:49;53149.22;;;-145.32;34.96
14041;BME280;7095;51.388;6.196;2023-05-19T12:33:20;53105.50;;;-145.32;33.99
14041;BME280;7095;51.388;6.196;2023-05-19T12:35:50;53129.34;;;-145.32;33.81
14041;BME280;7095;51.388;6.196;2023-05-19T12:38:21;53125.38;;;-145.32;33.99
14041;BME280;7095;51.388;6.196;2023-05-19T12:40:52;53113.44;;;-145.32;34.34
14041;BME280;7095;51.388;6.196;2023-05-19T12:43:21;53109.47;;;-145.32;34.34
14041;BME280;7095;51.388;6.196;2023-05-19T12:45:50;53101.50;;;-145.32;33.48
14041;BME280;7095;51.388;6.196;2023-05-19T12:48:22;53097.53;;;-145.32;32.99
14041;BME280;7095;51.388;6.196;2023-05-19T12:50:51;53089.59;;;-145.32;32.94
14041;BME280;7095;51.388;6.196;2023-05-19T12:53:25;53194.94;;;-145.32;33.37
14041;BME280;7095;51.388;6.196;2023-05-19T12:55:54;53081.63;;;-145.32;34.11
14041;BME280;7095;51.388;6.196;2023-05-19T12:58:23;53151.22;;;-145.32;34.00
14041;BME280;7095;51.388;6.196;2023-05-19T13:00:56;53155.19;;;-145.32;33.01
14041;BME280;7095;51.388;6.196;2023-05-19T13:03:27;53121.41;;;-145.32;32.93
14041;BME280;7095;51.388;6.196;2023-05-19T13:05:56;53129.34;;;-145.32;33.45
14041;BME280;7095;51.388;6.196;2023-05-19T13:08:31;53127.34;;;-145.32;33.13